Latest Weather Observations for Montague Island

IDN60901

Issued at 1:01 am EST Sunday 24 July 2016 (issued every 10 minutes, with the page automatically refreshed every 10 minutes)

About weather observations | Map of Canberra area stations | Latest observations for Canberra area | Other Formats
Station Details ID: 069017 Name: MONTAGUE ISLAND LIGHTHOUSE Lat: -36.25 Lon: 150.23 Height: 52.0 m
Data from the previous 72 hours. | See also: Recent months at Montague Island
Date/Time
EST
Temp
°C
App
Temp
°C
Dew
Point
°C
Rel
Hum
%
Delta-T
°C
Wind Press
QNH
hPa
Press
MSL
hPa
Rain since
9am
mm
Dir  Spd
km/h
Gust
km/h
Spd
kts
Gust
kts
24/01:00am 10.4 5.6 0.4 50 4.1 WNW 15 22 8 12 1010.6 1010.6 0.0
24/12:30am 10.4 5.6 -0.1 48 4.2 WNW 15 20 8 11 1010.4 1010.4 0.0
24/12:00am 10.9 5.7 -0.2 46 4.5 WNW 17 24 9 13 1010.3 1010.3 0.0
 
Date/Time
EST
Temp
°C
App
Temp
°C
Dew
Point
°C
Rel
Hum
%
Delta-T
°C
Wind Press
QNH
hPa
Press
MSL
hPa
Rain since
9am
mm
Dir  Spd
km/h
Gust
km/h
Spd
kts
Gust
kts
23/11:30pm 10.7 6.1 1.5 53 3.9 WNW 15 22 8 12 1010.2 1010.2 0.0
23/11:00pm 10.4 6.2 1.5 54 3.7 NW 13 20 7 11 1009.9 1009.9 0.0
23/10:30pm 11.0 5.2 -1.4 42 4.9 WNW 19 28 10 15 1009.6 1009.6 0.0
23/10:00pm 11.1 4.8 -0.7 44 4.7 WNW 22 33 12 18 1009.1 1009.1 0.0
23/09:30pm 11.1 5.1 -1.3 42 4.9 WNW 20 30 11 16 1008.8 1008.8 0.0
23/09:00pm 11.2 4.3 0.0 46 4.6 WNW 26 37 14 20 1008.5 1008.5 0.0
23/08:30pm 11.2 5.0 0.0 46 4.6 WNW 22 32 12 17 1008.1 1008.1 0.0
23/08:00pm 11.6 5.9 -0.5 43 4.9 WNW 19 26 10 14 1007.8 1007.8 0.0
23/07:30pm 11.4 6.8 -1.4 41 5.1 WNW 13 17 7 9 1007.4 1007.4 0.0
23/07:00pm 12.0 6.3 -0.5 42 5.1 WNW 19 28 10 15 1006.8 1006.8 0.0
23/06:30pm 12.2 5.6 -0.3 42 5.1 W 24 33 13 18 1006.0 1006.0 0.0
23/06:00pm 12.3 5.3 -0.2 42 5.2 W 26 35 14 19 1005.2 1005.2 0.0
23/05:30pm 12.6 6.0 -0.3 41 5.3 WNW 24 35 13 19 1004.6 1004.6 0.0
23/05:00pm 13.3 5.9 -0.7 38 5.8 WNW 28 41 15 22 1003.8 1003.8 0.0
23/04:30pm 14.1 5.6 -1.9 33 6.4 W 33 46 18 25 1002.8 1002.8 0.0
23/04:27pm 13.8 6.7 1.5 43 5.3 W 28 46 15 25 1002.9 1002.9 0.0
23/04:00pm 13.3 8.4 5.0 57 3.9 S 20 26 11 14 1002.5 1002.5 0.0
23/03:30pm 13.7 8.1 5.6 58 3.8 S 24 32 13 17 1001.5 1001.5 0.0
23/03:00pm 14.0 9.9 6.1 59 3.8 S 17 28 9 15 1001.5 1001.5 0.0
23/02:30pm 16.7 11.0 2.7 39 6.4 W 22 43 12 23 1000.8 1000.8 0.0
23/02:28pm 16.6 9.1 1.1 35 6.8 WNW 30 48 16 26 1000.6 1000.6 0.0
23/02:00pm 16.6 7.1 1.5 36 6.7 WNW 41 54 22 29 999.3 999.3 0.0
23/01:30pm 17.5 9.3 -1.2 28 7.9 W 32 48 17 26 999.0 999.0 0.0
23/01:21pm 17.5 9.3 0.2 31 7.5 W 33 52 18 28 999.0 999.0 0.0
23/01:00pm 17.0 9.8 0.6 33 7.2 W 28 39 15 21 998.7 998.7 0.0
23/12:30pm 17.0 9.0 0.2 32 7.3 W 32 43 17 23 998.4 998.4 0.0
23/12:00pm 16.6 8.2 1.5 36 6.7 W 35 50 19 27 998.3 998.3 0.0
23/11:30am 16.2 6.5 0.7 35 6.7 WNW 41 54 22 29 997.9 997.9 0.0
23/11:00am 16.1 8.2 2.2 39 6.3 WNW 33 44 18 24 998.0 998.0 0.0
23/10:30am 15.6 8.4 3.1 43 5.7 W 30 41 16 22 998.1 998.1 0.0
23/10:00am 15.0 5.7 2.9 44 5.5 W 41 56 22 30 997.8 997.8 0.0
23/09:30am 14.3 4.4 1.9 43 5.4 W 43 61 23 33 997.3 997.3 0.0
23/09:00am 13.7 2.9 2.0 45 5.2 W 48 69 26 37 996.9 996.9 3.6
23/08:30am 13.2 2.0 2.1 47 4.8 W 50 70 27 38 995.9 995.8 3.6
23/08:00am 12.9 1.4 2.5 49 4.6 WNW 52 72 28 39 995.3 995.2 3.6
23/07:32am 12.8 0.0 2.6 50 4.5 WNW 59 80 32 43 994.8 994.7 3.6
23/07:30am 12.8 0.2 3.5 53 4.2 WNW 59 74 32 40 994.9 994.8 3.6
23/07:07am 12.6 1.5 2.5 50 4.4 WNW 50 72 27 39 994.4 994.3 3.6
23/07:00am 12.5 2.3 3.2 53 4.2 WNW 46 61 25 33 994.8 994.7 3.6
23/06:50am 12.4 1.7 2.8 52 4.2 WNW 48 67 26 36 994.4 994.3 3.6
23/06:30am 12.5 -1.0 2.9 52 4.2 WNW 63 93 34 50 994.0 993.9 3.6
23/06:20am 13.0 -0.5 3.1 51 4.4 WNW 63 85 34 46 993.9 993.8 3.6
23/06:15am 13.1 0.6 2.1 47 4.8 WNW 57 78 31 42 993.7 993.6 3.6
23/06:00am 13.3 2.9 1.9 46 5.0 WNW 46 69 25 37 993.9 993.8 3.6
23/05:33am 13.5 2.5 3.0 49 4.7 WNW 50 70 27 38 993.8 993.7 3.6
23/05:30am 13.5 2.1 3.0 49 4.7 WNW 52 70 28 38 993.5 993.5 3.6
23/05:04am 14.3 0.1 2.9 46 5.1 WNW 67 87 36 47 992.3 992.3 3.6
23/05:00am 14.1 -0.1 3.0 47 5.0 WNW 67 83 36 45 992.5 992.5 3.6
23/04:30am 14.6 3.7 5.7 55 4.2 WNW 52 78 28 42 992.3 992.3 3.6
23/04:26am 14.7 3.3 5.0 52 4.6 WNW 54 78 29 42 992.2 992.2 3.6
23/04:21am 14.8 4.7 3.9 48 5.0 NW 46 78 25 42 992.0 992.0 3.6
23/04:00am 14.8 6.2 4.8 51 4.7 WNW 39 59 21 32 992.4 992.4 3.6
23/03:54am 14.9 6.7 4.6 50 4.8 WNW 37 59 20 32 992.9 992.9 3.6
23/03:30am 14.6 6.1 5.1 53 4.5 WNW 39 57 21 31 992.8 992.8 3.6
23/03:09am 14.9 6.5 5.4 53 4.5 WNW 39 69 21 37 992.5 992.5 3.6
23/03:00am 14.8 8.7 6.4 57 4.1 WNW 28 46 15 25 992.9 992.9 3.6
23/02:32am 15.3 6.2 6.1 54 4.4 WNW 43 61 23 33 993.0 993.0 3.6
23/02:30am 15.3 6.0 6.1 54 4.4 WNW 44 61 24 33 993.0 993.0 3.6
23/02:08am 15.7 6.1 6.4 54 4.5 WNW 46 65 25 35 993.2 993.2 3.6
23/02:00am 15.9 5.2 6.3 53 4.7 WNW 52 65 28 35 993.2 993.2 3.6
23/01:43am 16.2 7.9 6.1 51 4.9 WNW 39 72 21 39 993.0 993.0 3.6
23/01:30am 15.0 11.0 8.9 67 3.1 NW 20 46 11 25 992.9 992.9 3.6
23/01:00am 15.7 10.9 8.7 63 3.6 NW 24 41 13 22 992.7 992.7 3.6
23/12:44am 16.4 9.6 7.1 54 4.6 WNW 32 52 17 28 992.5 992.5 3.6
23/12:30am 16.5 9.2 7.4 55 4.6 WNW 35 50 19 27 992.9 992.9 3.6
23/12:02am 16.2 9.7 8.2 59 4.1 W 32 54 17 29 993.7 993.6 3.6
23/12:00am 15.8 9.7 8.3 61 3.8 W 30 43 16 23 993.8 993.7 3.6
 
Date/Time
EST
Temp
°C
App
Temp
°C
Dew
Point
°C
Rel
Hum
%
Delta-T
°C
Wind Press
QNH
hPa
Press
MSL
hPa
Rain since
9am
mm
Dir  Spd
km/h
Gust
km/h
Spd
kts
Gust
kts
22/11:30pm 15.8 9.3 8.8 63 3.6 W 33 39 18 21 994.3 994.2 3.6
22/11:00pm 16.1 9.2 8.8 62 3.8 W 35 43 19 23 994.4 994.3 3.6
22/10:30pm 16.4 8.8 9.1 62 3.8 W 39 44 21 24 994.4 994.3 3.6
22/10:00pm 16.3 10.2 10.4 68 3.2 W 33 43 18 23 994.8 994.7 3.6
22/09:30pm 16.4 9.4 11.3 72 2.8 WSW 39 50 21 27 995.2 995.1 3.6
22/09:00pm 16.8 10.5 12.3 75 2.5 W 37 46 20 25 995.1 995.0 3.6
22/08:49pm 17.2 13.0 13.5 79 2.1 WSW 28 41 15 22 995.0 994.9 3.6
22/08:30pm 16.7 14.4 14.2 85 1.4 W 19 20 10 11 995.2 995.1 3.6
22/08:00pm 17.1 15.8 14.7 86 1.4 W 15 20 8 11 995.4 995.3 3.6
22/07:30pm 16.5 14.6 14.3 87 1.3 WSW 17 24 9 13 995.6 995.5 3.4
22/07:00pm 17.4 16.0 14.5 83 1.7 SW 15 20 8 11 995.2 995.1 2.0
22/06:30pm 18.9 17.6 14.8 77 2.4 WNW 15 17 8 9 994.8 994.7 1.8
22/06:00pm 18.3 17.2 15.2 82 1.8 NW 15 20 8 11 994.6 994.5 1.8
22/05:30pm 17.9 16.3 15.0 83 1.7 WNW 17 20 9 11 995.1 995.0 1.8
22/05:00pm 18.0 15.8 14.3 79 2.1 WNW 19 26 10 14 994.9 994.8 1.2
22/04:30pm 19.4 14.5 14.4 73 2.9 NW 33 46 18 25 993.5 993.5 0.0
22/04:00pm 20.4 12.2 14.1 67 3.7 NNW 50 63 27 34 992.7 992.7 0.0
22/03:30pm 20.7 12.0 13.6 64 4.1 NNW 52 61 28 33 992.4 992.4 0.0
22/03:00pm 21.1 12.4 13.8 63 4.3 NNW 52 61 28 33 992.7 992.7 0.0
22/02:30pm 21.4 14.1 13.3 60 4.7 NW 44 54 24 29 993.2 993.2 0.0
22/02:00pm 22.2 14.9 12.7 55 5.5 NW 43 56 23 30 993.2 993.2 0.0
22/01:30pm 21.5 14.6 12.9 58 4.9 NW 41 56 22 30 993.7 993.6 0.0
22/01:05pm 22.6 14.6 12.5 53 5.8 NW 46 65 25 35 994.0 993.9 0.0
22/01:00pm 23.5 15.3 12.8 51 6.2 NW 48 65 26 35 994.6 994.5 0.0
22/12:37pm 22.4 14.6 12.9 55 5.4 NW 46 70 25 38 994.7 994.6 0.0
22/12:30pm 21.8 13.8 13.4 59 4.8 NW 48 57 26 31 994.6 994.5 0.0
22/12:00pm 22.5 13.9 13.0 55 5.5 NW 50 67 27 36 995.3 995.2 0.0
22/11:52am 22.1 15.0 14.0 60 4.7 NNW 44 67 24 36 995.3 995.2 0.0
22/11:30am 20.7 12.2 14.4 67 3.7 N 52 65 28 35 995.7 995.6 0.0
22/11:00am 19.4 10.4 14.0 71 3.1 N 54 72 29 39 997.1 997.1 0.0
22/10:48am 18.4 11.5 14.5 78 2.3 N 44 65 24 35 997.7 997.7 0.0
22/10:30am 18.0 9.4 14.1 78 2.2 NNE 52 67 28 36 998.1 998.1 0.0
22/10:00am 17.2 9.3 13.9 81 1.9 NNE 48 59 26 32 999.3 999.3 0.0
22/09:30am 17.4 9.5 13.7 79 2.1 NNE 48 59 26 32 1000.2 1000.2 0.0
22/09:00am 17.1 9.2 13.8 81 1.9 NNE 48 61 26 33 1000.9 1000.9 0.0
22/08:30am 17.3 8.0 13.2 77 2.3 NNE 54 65 29 35 1001.9 1001.9 0.0
22/08:00am 17.1 10.3 13.2 78 2.2 N 41 54 22 29 1002.7 1002.7 0.0
22/07:30am 17.0 10.4 12.7 76 2.4 N 39 50 21 27 1003.1 1003.1 0.0
22/07:00am 16.9 11.5 12.2 74 2.6 N 32 44 17 24 1003.6 1003.6 0.0
22/06:30am 17.4 11.2 11.4 68 3.3 NNW 35 48 19 26 1004.6 1004.6 0.0
22/06:19am 17.1 10.1 11.2 68 3.2 NNW 39 48 21 26 1004.8 1004.8 0.0
22/06:00am 15.8 10.4 12.7 82 1.7 NW 33 56 18 30 1004.7 1004.7 0.0
22/05:30am 15.0 9.2 10.8 76 2.2 NNW 32 41 17 22 1005.1 1005.1 0.0
22/05:15am 15.0 10.2 11.8 81 1.7 NW 28 43 15 23 1005.0 1005.0 0.0
22/05:00am 14.3 11.6 11.6 84 1.5 NNW 17 24 9 13 1005.5 1005.5 0.0
22/04:30am 14.5 12.2 11.8 84 1.5 NNW 15 19 8 10 1006.5 1006.5 0.0
22/04:00am 15.1 12.2 12.2 83 1.6 N 19 22 10 12 1007.1 1007.1 0.0
22/03:30am 15.2 12.3 12.3 83 1.6 N 19 24 10 13 1007.6 1007.6 0.0
22/03:00am 14.3 12.0 11.6 84 1.5 NNW 15 20 8 11 1008.2 1008.2 0.0
22/02:30am 14.0 11.7 11.9 87 1.1 NNW 15 19 8 10 1008.6 1008.6 0.0
22/02:00am 13.8 11.6 12.0 89 1.0 NNW 15 17 8 9 1009.2 1009.2 0.0
22/01:30am 13.9 11.5 12.5 91 0.8 NNW 17 20 9 11 1009.5 1009.5 0.0
22/01:00am 14.1 11.8 13.0 93 0.6 NNW 17 20 9 11 1009.7 1009.7 0.0
22/12:30am 14.4 12.2 13.4 94 0.6 NNW 17 20 9 11 1009.6 1009.6 0.0
22/12:00am 14.8 12.5 14.0 95 0.5 N 19 22 10 12 1010.5 1010.5 0.0
 
Date/Time
EST
Temp
°C
App
Temp
°C
Dew
Point
°C
Rel
Hum
%
Delta-T
°C
Wind Press
QNH
hPa
Press
MSL
hPa
Rain since
9am
mm
Dir  Spd
km/h
Gust
km/h
Spd
kts
Gust
kts
21/11:30pm 14.4 12.4 13.8 96 0.3 NNW 17 20 9 11 1011.0 1011.0 0.0
21/11:00pm 14.0 12.6 13.4 96 0.3 NW 13 15 7 8 1011.4 1011.4 0.0
21/10:30pm 14.5 13.3 13.9 96 0.3 NNW 13 17 7 9 1011.2 1011.2 0.0
21/10:00pm 14.9 13.7 14.1 95 0.5 NNW 13 17 7 9 1011.5 1011.5 0.0
21/09:30pm 15.2 14.1 14.4 95 0.5 NW 13 17 7 9 1012.2 1012.3 0.0
21/09:00pm 15.5 13.4 14.7 95 0.5 N 19 26 10 14 1012.4 1012.5 0.0
21/08:30pm 15.4 12.6 14.4 94 0.6 N 22 33 12 18 1012.6 1012.7 0.0
21/08:00pm 15.6 12.5 14.6 94 0.6 N 24 33 13 18 1012.7 1012.8 0.0
21/07:30pm 15.9 11.8 14.8 93 0.6 N 30 39 16 21 1012.9 1013.0 0.0
21/07:00pm 16.0 11.8 14.7 92 0.7 N 30 41 16 22 1012.7 1012.8 0.0
21/06:30pm 16.0 12.5 14.5 91 0.9 N 26 39 14 21 1012.8 1012.9 0.0
21/06:00pm 16.0 12.4 14.2 89 1.0 N 26 33 14 18 1013.2 1013.2 0.0
21/05:30pm 15.9 11.9 14.1 89 1.0 NNE 28 35 15 19 1013.2 1013.2 0.0
21/05:00pm 15.9 11.1 13.9 88 1.1 NNE 32 37 17 20 1013.1 1013.1 0.0
21/04:30pm 15.8 10.8 14.0 89 1.0 NNE 33 39 18 21 1013.1 1013.1 0.0
21/04:00pm 15.7 10.7 13.9 89 1.0 NNE 33 41 18 22 1013.4 1013.4 0.0
21/03:30pm 15.6 10.1 13.6 88 1.1 NNE 35 44 19 24 1013.7 1013.7 0.0
21/03:00pm 15.8 10.6 13.3 85 1.4 NNE 33 43 18 23 1014.0 1014.0 0.0
21/02:30pm 15.7 11.1 13.5 87 1.2 NNE 30 39 16 21 1014.3 1014.3 0.0
21/02:00pm 15.6 11.7 13.3 86 1.3 NNE 26 35 14 19 1014.5 1014.5 0.0
21/01:30pm 15.6 11.2 12.9 84 1.5 NNE 28 35 15 19 1015.0 1015.0 0.0
21/01:00pm 15.6 10.7 12.5 82 1.7 NNE 30 35 16 19 1015.6 1015.6 0.0
21/12:30pm 15.5 11.8 12.6 83 1.6 N 24 33 13 18 1016.4 1016.4 0.0
21/12:00pm 15.6 12.4 13.1 85 1.4 N 22 30 12 16 1017.0 1017.0 0.0
21/11:30am 15.4 12.4 12.5 83 1.6 N 20 28 11 15 1017.7 1017.7 0.0
21/11:00am 15.1 12.2 12.4 84 1.5 N 19 24 10 13 1018.3 1018.3 0.0
21/10:30am 15.0 13.2 12.1 83 1.6 NNW 13 20 7 11 1018.9 1018.9 0.0
21/10:00am 14.7 12.9 12.0 84 1.5 NNW 13 17 7 9 1019.1 1019.1 0.0
21/09:30am 14.8 12.9 11.8 82 1.6 NW 13 15 7 8 1019.5 1019.5 0.0
21/09:00am 14.4 13.3 11.9 85 1.3 NW 9 13 5 7 1019.6 1019.6 2.0
21/08:30am 13.4 11.8 11.6 89 1.0 NNW 11 13 6 7 1019.8 1019.8 2.0
21/08:00am 13.0 12.1 11.2 89 0.9 NW 7 11 4 6 1019.8 1019.8 2.0
21/07:30am 12.8 11.8 10.9 88 1.0 NW 7 9 4 5 1019.8 1019.8 2.0
21/07:00am 12.8 11.0 10.7 87 1.1 WNW 11 13 6 7 1019.9 1019.9 2.0
21/06:30am 13.0 12.1 10.7 86 1.2 W 6 7 3 4 1019.7 1019.7 2.0
21/06:00am 12.9 11.4 10.4 85 1.3 W 9 11 5 6 1019.6 1019.6 2.0
21/05:30am 13.2 12.7 10.6 84 1.4 W 4 6 2 3 1019.5 1019.5 2.0
21/05:00am 13.0 11.5 10.5 85 1.3 W 9 13 5 7 1019.7 1019.7 2.0
21/04:30am 12.9 11.8 10.6 86 1.2 WSW 7 9 4 5 1019.7 1019.7 2.0
21/04:00am 12.9 11.5 10.8 87 1.1 WSW 9 11 5 6 1019.9 1019.9 2.0
21/03:30am 13.0 11.7 11.1 88 1.0 WSW 9 13 5 7 1020.1 1020.1 2.0
21/03:00am 13.0 11.7 11.2 89 0.9 WSW 9 13 5 7 1020.5 1020.5 2.0
21/02:30am 12.9 11.2 11.3 90 0.8 WSW 11 13 6 7 1020.8 1020.8 2.0
21/02:00am 12.9 10.8 11.3 90 0.8 WSW 13 15 7 8 1020.8 1020.8 2.0
21/01:30am 13.0 10.6 11.4 90 0.8 WSW 15 19 8 10 1021.0 1021.0 2.0

Latest Capital City Observations: Canberra | Sydney | Melbourne | Brisbane | Adelaide | Perth | Hobart | Darwin

Other Formats:

Comma delimited format used in spreadsheet applications
http://www.bom.gov.au/fwo/IDN60903/IDN60903.94939.axf

JavaScript Object Notation format (JSON) in row-major order
http://www.bom.gov.au/fwo/IDN60903/IDN60903.94939.json